TimeCDT,TemperatureF,Dew PointF,Humidity,Sea Level PressureIn,VisibilityMPH,Wind Direction,Wind SpeedMPH,Gust SpeedMPH,PrecipitationIn,Events,Conditions,WindDirDegrees,DateUTC
12:53 AM,71.1,59.0,66,29.96,10.0,South,4.6,-,N/A,,Clear,170,2012-09-22 05:53:00
1:53 AM,66.9,60.1,79,29.97,10.0,Calm,Calm,-,N/A,,Clear,0,2012-09-22 06:53:00
2:53 AM,64.9,61.0,87,29.97,10.0,NNW,3.5,-,N/A,,Clear,340,2012-09-22 07:53:00
3:53 AM,63.0,60.1,90,29.98,10.0,NNW,3.5,-,N/A,,Clear,330,2012-09-22 08:53:00
4:53 AM,63.0,60.1,90,29.99,10.0,WNW,4.6,-,N/A,,Clear,300,2012-09-22 09:53:00
5:53 AM,61.0,59.0,93,30.00,10.0,Calm,Calm,-,N/A,,Clear,0,2012-09-22 10:53:00
6:53 AM,61.0,59.0,93,30.03,10.0,WNW,4.6,-,N/A,,Clear,300,2012-09-22 11:53:00
7:53 AM,62.1,60.1,93,30.04,10.0,WNW,3.5,-,N/A,,Clear,300,2012-09-22 12:53:00
8:53 AM,68.0,63.0,84,30.05,10.0,NW,4.6,-,N/A,,Clear,310,2012-09-22 13:53:00
9:53 AM,75.0,66.9,76,30.07,10.0,Calm,Calm,-,N/A,,Partly Cloudy,0,2012-09-22 14:53:00
10:53 AM,78.1,68.0,71,30.08,10.0,SSE,3.5,-,N/A,,Partly Cloudy,160,2012-09-22 15:53:00
11:53 AM,81.0,64.9,58,30.07,10.0,Variable,3.5,-,N/A,,Partly Cloudy,0,2012-09-22 16:53:00
12:53 PM,82.9,64.0,53,30.06,10.0,ENE,4.6,-,N/A,,Partly Cloudy,70,2012-09-22 17:53:00
1:53 PM,84.9,62.1,46,30.04,10.0,Calm,Calm,-,N/A,,Partly Cloudy,0,2012-09-22 18:53:00
2:53 PM,84.9,62.1,46,30.03,10.0,Calm,Calm,-,N/A,,Partly Cloudy,0,2012-09-22 19:53:00
3:53 PM,88.0,62.1,42,30.01,10.0,Calm,Calm,-,N/A,,Partly Cloudy,0,2012-09-22 20:53:00
4:53 PM,88.0,60.1,39,30.01,10.0,ENE,8.1,-,N/A,,Partly Cloudy,70,2012-09-22 21:53:00
5:53 PM,86.0,62.1,44,30.01,10.0,ESE,4.6,-,N/A,,Partly Cloudy,120,2012-09-22 22:53:00
6:53 PM,84.0,62.1,47,30.01,10.0,East,5.8,-,N/A,,Partly Cloudy,90,2012-09-22 23:53:00
7:53 PM,79.0,63.0,58,30.03,10.0,East,3.5,-,N/A,,Clear,100,2012-09-23 00:53:00
8:53 PM,78.1,63.0,60,30.04,10.0,East,3.5,-,N/A,,Clear,100,2012-09-23 01:53:00
9:53 PM,78.1,63.0,60,30.05,10.0,Calm,Calm,-,N/A,,Clear,0,2012-09-23 02:53:00
10:53 PM,73.0,64.0,73,30.06,10.0,NW,3.5,-,N/A,,Clear,310,2012-09-23 03:53:00
11:53 PM,73.0,64.0,73,30.08,10.0,Calm,Calm,-,N/A,,Clear,0,2012-09-23 04:53:00